Latest Weather Observations for Coconut Island

IDQ60801

Issued at 8:02 pm EST Tuesday 27 January 2015 (issued every 30 minutes, with the page automatically refreshed every 10 minutes)

About weather observations | Map of weather stations | Latest weather observations for QLD | Other Formats
Station Details ID: 027054 Name: COCONUT ISLAND Lat: -10.05 Lon: 143.07 Height: 3.5 m
Data from the previous 72 hours. | See also: Recent months at Coconut Island
Date/Time
EST
Temp
°C
App
Temp
°C
Dew
Point
Rel
Hum
%
Delta-T
°C
Wind Press
QNH
hPa
Press
MSL
hPa
Rain
since 9 am
mm
Dir
 
Spd
km/h
Gust
km/h
Spd
kts
Gust
kts
27/08:00pm 29.0 - - - - WNW 19 30 10 16 1005.7 1005.6 0.8
27/07:30pm 29.2 - - - - WNW 22 37 12 20 1005.8 1005.7 0.8
27/07:00pm 29.1 - - - - WNW 19 32 10 17 1005.4 1005.3 0.8
27/06:30pm 29.2 - - - - WNW 19 32 10 17 1005.2 1005.1 0.8
27/06:00pm 29.7 - - - - WNW 19 30 10 16 1004.7 1004.6 0.8
27/05:30pm 30.1 - - - - WNW 22 35 12 19 1004.4 1004.3 0.8
27/05:00pm 29.8 - - - - WNW 17 28 9 15 1003.7 1003.6 0.8
27/04:30pm 30.1 - - - - WNW 19 30 10 16 1003.2 1003.1 0.8
27/04:00pm 30.5 - - - - W 19 32 10 17 1003.3 1003.2 0.8
27/03:30pm 29.5 - - - - WNW 22 35 12 19 1003.6 1003.5 0.8
27/03:00pm 30.9 - - - - WNW 20 33 11 18 1004.0 1003.9 0.2
27/02:30pm 30.9 - - - - WNW 17 30 9 16 1004.3 1004.2 0.2
27/02:00pm 30.5 - - - - NW 22 41 12 22 1004.5 1004.4 0.2
27/01:30pm 29.5 - - - - WNW 17 28 9 15 1005.0 1004.9 0.2
27/01:00pm 31.5 - - - - WNW 22 35 12 19 1005.6 1005.5 0.2
27/12:30pm 31.1 - - - - WNW 22 35 12 19 1006.5 1006.4 0.2
27/12:00pm 31.5 - - - - WNW 20 32 11 17 1006.9 1006.8 0.2
27/11:30am 31.0 - - - - NW 20 30 11 16 1007.2 1007.1 0.2
27/11:00am 30.9 - - - - WNW 20 32 11 17 1007.1 1007.0 0.2
27/10:30am 30.6 - - - - NW 22 35 12 19 1007.4 1007.3 0.0
27/10:00am 30.1 - - - - NW 22 33 12 18 1007.8 1007.7 0.0
27/09:30am 29.9 - - - - NW 22 35 12 19 1007.8 1007.7 0.0
27/09:00am 29.8 - - - - NW 22 32 12 17 1007.6 1007.5 0.0
27/08:30am 29.1 - - - - NW 20 30 11 16 1007.6 1007.5 0.0
27/08:00am 28.8 - - - - NW 22 33 12 18 1007.2 1007.1 0.0
27/07:30am 28.6 - - - - NW 22 30 12 16 1007.0 1006.9 0.0
27/07:00am 28.4 - - - - NW 20 28 11 15 1006.8 1006.7 0.0
27/06:30am 28.2 - - - - NW 20 30 11 16 1006.5 1006.4 0.0
27/06:00am 27.9 - - - - NW 15 22 8 12 1006.6 1006.5 0.0
27/05:30am 28.1 - - - - NW 17 24 9 13 1006.8 1006.7 0.0
27/05:00am 28.5 - - - - NW 19 32 10 17 1006.7 1006.6 0.0
27/04:30am 28.5 - - - - NW 20 30 11 16 1006.6 1006.5 0.0
27/04:00am 28.6 - - - - NW 20 32 11 17 1006.5 1006.4 0.0
27/03:30am 28.6 - - - - NW 24 35 13 19 1006.6 1006.5 0.0
27/03:00am 28.4 - - - - NW 20 30 11 16 1006.6 1006.5 0.0
27/02:30am 28.5 - - - - NW 17 24 9 13 1006.7 1006.6 0.0
27/02:00am 28.2 - - - - NNW 19 24 10 13 1007.0 1006.9 0.0
27/01:30am 28.3 - - - - NNW 20 26 11 14 1007.4 1007.3 0.0
27/01:00am 28.4 - - - - NNW 19 26 10 14 1007.9 1007.8 0.0
27/12:30am 28.5 - - - - NNW 19 30 10 16 1008.2 1008.1 0.0
27/12:00am 28.5 - - - - NNW 19 24 10 13 1008.4 1008.3 0.0
 
Date/Time
EST
Temp
°C
App
Temp
°C
Dew
Point
Rel
Hum
%
Delta-T
°C
Wind Press
QNH
hPa
Press
MSL
hPa
Rain
since 9 am
mm
Dir
 
Spd
km/h
Gust
km/h
Spd
kts
Gust
kts
26/11:30pm 28.7 - - - - NNW 19 24 10 13 1008.9 1008.8 0.0
26/11:00pm 28.8 - - - - NW 19 28 10 15 1008.8 1008.7 0.0
26/10:30pm 28.9 - - - - NW 17 24 9 13 1008.7 1008.6 0.0
26/10:00pm 28.9 - - - - NW 17 22 9 12 1008.6 1008.5 0.0
26/09:30pm 28.9 - - - - WNW 17 24 9 13 1008.0 1007.9 0.0
26/09:00pm 28.8 - - - - WNW 19 28 10 15 1007.6 1007.5 0.0
26/08:30pm 28.4 - - - - WNW 15 26 8 14 1007.5 1007.4 0.0
26/08:00pm 29.5 - - - - WNW 19 32 10 17 1007.3 1007.2 0.0
26/07:30pm 29.4 - - - - W 17 28 9 15 1007.2 1007.1 0.0
26/07:00pm 29.6 - - - - W 19 30 10 16 1006.9 1006.8 0.0
26/06:30pm 30.0 - - - - W 17 30 9 16 1006.6 1006.5 0.0
26/06:00pm 30.5 - - - - W 17 28 9 15 1006.3 1006.2 0.0
26/05:30pm 31.0 - - - - W 15 26 8 14 1005.9 1005.8 0.0
26/05:00pm 31.3 - - - - W 13 20 7 11 1005.8 1005.7 0.0
26/04:30pm 31.6 - - - - WNW 15 26 8 14 1005.8 1005.7 0.0
26/04:00pm 31.8 - - - - WNW 17 28 9 15 1005.9 1005.8 0.0
26/03:30pm 32.1 - - - - WNW 15 24 8 13 1006.3 1006.2 0.0
26/03:00pm 31.9 - - - - WNW 17 28 9 15 1006.9 1006.8 0.0
26/02:30pm 32.2 - - - - WNW 17 24 9 13 1007.3 1007.2 0.0
26/02:00pm 31.8 - - - - WNW 19 28 10 15 1007.6 1007.5 0.0
26/01:30pm 31.9 - - - - WNW 17 28 9 15 1008.1 1008.0 0.0
26/01:00pm 31.9 - - - - NW 19 32 10 17 1008.7 1008.6 0.0
26/12:30pm 32.2 - - - - NW 19 28 10 15 1009.1 1009.0 0.0
26/12:00pm 32.0 - - - - NW 19 28 10 15 1009.2 1009.1 0.0
26/11:30am 32.1 - - - - WNW 15 26 8 14 1009.3 1009.2 0.0
26/11:00am 31.6 - - - - NW 17 24 9 13 1009.7 1009.6 0.0
26/10:30am 31.4 - - - - WNW 17 26 9 14 1010.0 1009.9 0.0
26/10:00am 31.7 - - - - WNW 15 24 8 13 1010.6 1010.5 0.0
26/09:30am 31.1 - - - - NW 17 24 9 13 1010.6 1010.5 0.0
26/09:00am 30.9 - - - - WNW 13 20 7 11 1010.6 1010.5 0.0
26/08:30am 30.3 - - - - WNW 13 20 7 11 1010.3 1010.2 0.0
26/08:00am 29.7 - - - - WNW 11 19 6 10 1010.1 1010.0 0.0
26/07:30am 29.4 - - - - WNW 13 22 7 12 1010.0 1009.9 0.0
26/07:00am 29.0 - - - - WNW 13 20 7 11 1009.7 1009.6 0.0
26/06:30am 28.6 - - - - WNW 11 17 6 9 1009.3 1009.2 0.0
26/06:00am 28.4 - - - - WNW 9 19 5 10 1009.0 1008.9 0.0
26/05:30am 28.5 - - - - WNW 11 17 6 9 1008.6 1008.5 0.0
26/05:00am 28.6 - - - - W 11 19 6 10 1008.5 1008.4 0.0
26/04:30am 28.5 - - - - WNW 13 20 7 11 1008.3 1008.2 0.0
26/04:00am 28.5 - - - - WNW 13 24 7 13 1008.4 1008.3 0.0
26/03:30am 28.5 - - - - WNW 11 20 6 11 1008.4 1008.3 0.0
26/03:00am 28.5 - - - - WNW 11 20 6 11 1008.7 1008.6 0.0
26/02:30am 28.5 - - - - WNW 11 19 6 10 1008.8 1008.7 0.0
26/02:00am 28.4 - - - - WNW 9 19 5 10 1008.8 1008.7 0.0
26/01:30am 28.3 - - - - W 9 15 5 8 1008.9 1008.8 0.0
26/01:00am 28.4 - - - - W 9 17 5 9 1009.6 1009.5 0.0
26/12:30am 28.5 - - - - W 9 17 5 9 1010.1 1010.0 0.0
26/12:00am 28.5 - - - - WNW 7 15 4 8 1010.4 1010.3 0.0
 
Date/Time
EST
Temp
°C
App
Temp
°C
Dew
Point
Rel
Hum
%
Delta-T
°C
Wind Press
QNH
hPa
Press
MSL
hPa
Rain
since 9 am
mm
Dir
 
Spd
km/h
Gust
km/h
Spd
kts
Gust
kts
25/11:30pm 28.6 - - - - WNW 9 13 5 7 1010.4 1010.3 0.0
25/11:00pm 28.6 - - - - WNW 9 13 5 7 1010.3 1010.2 0.0
25/10:30pm 28.7 - - - - WNW 9 17 5 9 1010.2 1010.1 0.0
25/10:00pm 28.8 - - - - WNW 11 17 6 9 1010.0 1009.9 0.0
25/09:30pm 28.8 - - - - W 13 20 7 11 1009.7 1009.6 0.0
25/09:00pm 28.9 - - - - W 15 22 8 12 1009.5 1009.4 0.0
25/08:30pm 29.0 - - - - W 15 24 8 13 1009.5 1009.4 0.0
25/08:00pm 29.1 - - - - W 17 28 9 15 1009.3 1009.2 0.0
25/07:30pm 29.2 - - - - W 13 24 7 13 1009.0 1008.9 0.0
25/07:00pm 29.4 - - - - W 15 24 8 13 1008.7 1008.6 0.0
25/06:30pm 29.9 - - - - W 15 26 8 14 1008.5 1008.4 0.0
25/06:00pm 30.4 - - - - W 15 24 8 13 1008.4 1008.3 0.0
25/05:30pm 30.7 - - - - W 15 26 8 14 1007.9 1007.8 0.0
25/05:00pm 31.1 - - - - W 17 30 9 16 1007.7 1007.6 0.0
25/04:30pm 31.2 - - - - W 15 28 8 15 1007.6 1007.5 0.0
25/04:00pm 31.4 - - - - W 15 24 8 13 1007.8 1007.7 0.0
25/03:30pm 31.7 - - - - WNW 17 26 9 14 1007.9 1007.8 0.0
25/03:00pm 31.8 - - - - WNW 19 33 10 18 1008.1 1008.0 0.0
25/02:30pm 31.5 - - - - WNW 17 26 9 14 1008.4 1008.3 0.0
25/02:00pm 31.3 - - - - WNW 19 28 10 15 1008.6 1008.5 0.0
25/01:30pm 31.2 - - - - WNW 19 28 10 15 1008.9 1008.8 0.0
25/01:00pm 31.0 - - - - NW 20 28 11 15 1009.3 1009.2 0.0
25/12:30pm 31.0 - - - - NW 20 30 11 16 1009.8 1009.7 0.0
25/12:00pm 31.0 - - - - WNW 19 30 10 16 1010.3 1010.2 0.0
25/11:30am 31.3 - - - - WNW 19 28 10 15 1010.6 1010.5 0.0
25/11:00am 31.0 - - - - NW 19 32 10 17 1011.3 1011.2 0.0
25/10:30am 30.4 - - - - NW 19 28 10 15 1011.7 1011.6 0.0
25/10:00am 30.7 - - - - NNW 19 26 10 14 1011.9 1011.8 0.0
25/09:30am 30.6 - - - - NNW 20 30 11 16 1012.0 1011.9 0.0
25/09:00am 29.9 - - - - NNW 20 28 11 15 1012.1 1012.0 5.0
25/08:30am 29.6 - - - - NNW 20 28 11 15 1012.0 1011.9 5.0
25/08:00am 28.9 - - - - NNW 26 32 14 17 1012.0 1011.9 5.0
25/07:30am 28.7 - - - - NNW 28 32 15 17 1011.6 1011.5 5.0
25/07:00am 28.4 - - - - NNW 24 30 13 16 1011.4 1011.3 5.0
25/06:30am 28.3 - - - - NNW 24 30 13 16 1011.3 1011.2 5.0
25/06:00am 28.5 - - - - NNW 26 32 14 17 1011.0 1010.9 5.0
25/05:30am 28.5 - - - - NNW 26 32 14 17 1010.5 1010.4 5.0
25/05:00am 28.8 - - - - NNW 26 35 14 19 1010.2 1010.1 5.0
25/04:30am 28.7 - - - - NNW 26 35 14 19 1009.9 1009.8 5.0
25/04:00am 28.7 - - - - NNW 24 35 13 19 1009.6 1009.5 5.0
25/03:30am 28.7 - - - - NW 24 37 13 20 1009.8 1009.7 5.0
25/03:00am 28.6 - - - - NNW 24 32 13 17 1009.7 1009.6 5.0
25/02:30am 28.5 - - - - NNW 26 33 14 18 1009.9 1009.8 5.0
25/02:00am 28.4 - - - - NNW 26 33 14 18 1010.3 1010.2 5.0
25/01:30am 28.5 - - - - NNW 26 32 14 17 1010.5 1010.4 4.8
25/01:00am 28.7 - - - - NNW 24 30 13 16 1010.7 1010.6 4.8
25/12:30am 28.8 - - - - NNW 22 30 12 16 1010.9 1010.8 4.8
25/12:00am 29.0 - - - - NW 20 28 11 15 1011.2 1011.1 4.8
 
Date/Time
EST
Temp
°C
App
Temp
°C
Dew
Point
Rel
Hum
%
Delta-T
°C
Wind Press
QNH
hPa
Press
MSL
hPa
Rain
since 9 am
mm
Dir
 
Spd
km/h
Gust
km/h
Spd
kts
Gust
kts
24/11:30pm 29.3 - - - - NW 22 33 12 18 1011.2 1011.1 4.8
24/11:00pm 29.0 - - - - NNW 22 28 12 15 1011.3 1011.2 4.8
24/10:30pm 29.0 - - - - NNW 20 26 11 14 1011.0 1010.9 4.8
24/10:00pm 29.3 - - - - NW 19 28 10 15 1010.9 1010.8 4.8
24/09:30pm 29.4 - - - - NW 19 28 10 15 1010.9 1010.8 4.8
24/09:00pm 29.0 - - - - NW 15 24 8 13 1010.7 1010.6 4.8
24/08:30pm 28.6 - - - - NW 15 22 8 12 1010.3 1010.2 4.8

Other Formats:

Comma delimited format used in spreadsheet applications
http://www.bom.gov.au/fwo/IDQ60801/IDQ60801.94182.axf

JavaScript Object Notation format (JSON) in row-major order
http://www.bom.gov.au/fwo/IDQ60801/IDQ60801.94182.json